sensor_id;sensor_type;location;lat;lon;timestamp;P1;durP1;ratioP1;P2;durP2;ratioP2
4565;SDS011;2295;51.050;14.608;2023-05-07T00:01:51;54.97;;;18.52;;
4565;SDS011;2295;51.050;14.608;2023-05-07T00:04:19;68.40;;;17.58;;
4565;SDS011;2295;51.050;14.608;2023-05-07T00:06:49;132.98;;;17.95;;
4565;SDS011;2295;51.050;14.608;2023-05-07T00:09:18;118.53;;;17.40;;
4565;SDS011;2295;51.050;14.608;2023-05-07T00:11:46;127.22;;;15.80;;
4565;SDS011;2295;51.050;14.608;2023-05-07T00:14:15;42.42;;;15.30;;
4565;SDS011;2295;51.050;14.608;2023-05-07T00:16:43;35.58;;;16.33;;
4565;SDS011;2295;51.050;14.608;2023-05-07T00:19:12;36.65;;;14.93;;
4565;SDS011;2295;51.050;14.608;2023-05-07T00:21:40;38.38;;;15.43;;
4565;SDS011;2295;51.050;14.608;2023-05-07T00:24:10;35.85;;;15.65;;
4565;SDS011;2295;51.050;14.608;2023-05-07T00:26:38;42.15;;;15.10;;
4565;SDS011;2295;51.050;14.608;2023-05-07T00:29:07;31.60;;;15.48;;
4565;SDS011;2295;51.050;14.608;2023-05-07T00:31:36;31.98;;;15.20;;
4565;SDS011;2295;51.050;14.608;2023-05-07T00:34:04;36.20;;;15.73;;
4565;SDS011;2295;51.050;14.608;2023-05-07T00:36:32;38.20;;;17.73;;
4565;SDS011;2295;51.050;14.608;2023-05-07T00:39:01;36.80;;;17.67;;
4565;SDS011;2295;51.050;14.608;2023-05-07T00:41:31;47.25;;;17.77;;
4565;SDS011;2295;51.050;14.608;2023-05-07T00:43:59;55.85;;;18.45;;
4565;SDS011;2295;51.050;14.608;2023-05-07T00:46:28;95.82;;;18.98;;
4565;SDS011;2295;51.050;14.608;2023-05-07T00:48:58;88.80;;;17.88;;
4565;SDS011;2295;51.050;14.608;2023-05-07T00:51:28;76.18;;;17.85;;
4565;SDS011;2295;51.050;14.608;2023-05-07T00:53:57;58.22;;;16.52;;
4565;SDS011;2295;51.050;14.608;2023-05-07T00:56:26;98.20;;;18.38;;
4565;SDS011;2295;51.050;14.608;2023-05-07T00:58:56;113.13;;;18.30;;
4565;SDS011;2295;51.050;14.608;2023-05-07T01:01:25;82.03;;;17.88;;
4565;SDS011;2295;51.050;14.608;2023-05-07T01:03:54;116.22;;;18.10;;
4565;SDS011;2295;51.050;14.608;2023-05-07T01:06:23;167.93;;;20.48;;
4565;SDS011;2295;51.050;14.608;2023-05-07T01:08:54;184.75;;;20.75;;
4565;SDS011;2295;51.050;14.608;2023-05-07T01:11:23;129.15;;;20.25;;
4565;SDS011;2295;51.050;14.608;2023-05-07T01:13:52;234.13;;;20.95;;
4565;SDS011;2295;51.050;14.608;2023-05-07T01:16:22;92.43;;;19.30;;
4565;SDS011;2295;51.050;14.608;2023-05-07T01:18:51;219.43;;;22.40;;
4565;SDS011;2295;51.050;14.608;2023-05-07T01:21:20;134.40;;;21.27;;
4565;SDS011;2295;51.050;14.608;2023-05-07T01:23:55;145.40;;;20.08;;
4565;SDS011;2295;51.050;14.608;2023-05-07T01:26:24;124.03;;;19.38;;
4565;SDS011;2295;51.050;14.608;2023-05-07T01:28:53;76.57;;;20.42;;
4565;SDS011;2295;51.050;14.608;2023-05-07T01:31:21;201.23;;;21.52;;
4565;SDS011;2295;51.050;14.608;2023-05-07T01:33:51;188.55;;;20.30;;
4565;SDS011;2295;51.050;14.608;2023-05-07T01:36:21;108.50;;;19.00;;
4565;SDS011;2295;51.050;14.608;2023-05-07T01:38:52;215.93;;;21.23;;
4565;SDS011;2295;51.050;14.608;2023-05-07T01:41:25;148.80;;;19.42;;
4565;SDS011;2295;51.050;14.608;2023-05-07T01:43:54;287.80;;;19.15;;
4565;SDS011;2295;51.050;14.608;2023-05-07T01:46:24;81.32;;;17.70;;
4565;SDS011;2295;51.050;14.608;2023-05-07T01:48:54;198.55;;;19.85;;
4565;SDS011;2295;51.050;14.608;2023-05-07T01:51:22;215.13;;;19.92;;
4565;SDS011;2295;51.050;14.608;2023-05-07T01:53:51;203.63;;;18.42;;
4565;SDS011;2295;51.050;14.608;2023-05-07T01:56:21;149.10;;;18.15;;
4565;SDS011;2295;51.050;14.608;2023-05-07T01:58:50;208.45;;;17.83;;
4565;SDS011;2295;51.050;14.608;2023-05-07T02:01:19;257.08;;;21.05;;
4565;SDS011;2295;51.050;14.608;2023-05-07T02:03:48;166.55;;;17.60;;
4565;SDS011;2295;51.050;14.608;2023-05-07T02:06:16;127.30;;;18.35;;
4565;SDS011;2295;51.050;14.608;2023-05-07T02:08:47;71.38;;;16.05;;
4565;SDS011;2295;51.050;14.608;2023-05-07T02:11:15;37.47;;;17.05;;
4565;SDS011;2295;51.050;14.608;2023-05-07T02:13:45;200.60;;;18.85;;
4565;SDS011;2295;51.050;14.608;2023-05-07T02:16:13;258.42;;;19.15;;
4565;SDS011;2295;51.050;14.608;2023-05-07T02:18:42;89.55;;;16.10;;
4565;SDS011;2295;51.050;14.608;2023-05-07T02:21:10;230.15;;;19.45;;
4565;SDS011;2295;51.050;14.608;2023-05-07T02:23:39;233.57;;;18.23;;
4565;SDS011;2295;51.050;14.608;2023-05-07T02:26:07;77.65;;;16.85;;
4565;SDS011;2295;51.050;14.608;2023-05-07T02:28:36;174.13;;;16.77;;
4565;SDS011;2295;51.050;14.608;2023-05-07T02:31:06;239.23;;;20.10;;
4565;SDS011;2295;51.050;14.608;2023-05-07T02:33:34;43.55;;;17.23;;
4565;SDS011;2295;51.050;14.608;2023-05-07T02:36:06;187.48;;;19.02;;
4565;SDS011;2295;51.050;14.608;2023-05-07T02:38:35;56.50;;;16.70;;
4565;SDS011;2295;51.050;14.608;2023-05-07T02:41:04;52.67;;;17.45;;
4565;SDS011;2295;51.050;14.608;2023-05-07T02:43:32;230.43;;;21.67;;
4565;SDS011;2295;51.050;14.608;2023-05-07T02:46:01;95.80;;;19.38;;
4565;SDS011;2295;51.050;14.608;2023-05-07T02:48:32;289.88;;;22.65;;
4565;SDS011;2295;51.050;14.608;2023-05-07T02:51:01;195.48;;;20.92;;
4565;SDS011;2295;51.050;14.608;2023-05-07T02:53:31;340.08;;;23.23;;
4565;SDS011;2295;51.050;14.608;2023-05-07T02:56:00;180.48;;;21.45;;
4565;SDS011;2295;51.050;14.608;2023-05-07T02:58:29;164.75;;;20.42;;
4565;SDS011;2295;51.050;14.608;2023-05-07T03:00:57;206.95;;;21.25;;
4565;SDS011;2295;51.050;14.608;2023-05-07T03:03:26;309.15;;;22.92;;
4565;SDS011;2295;51.050;14.608;2023-05-07T03:05:56;255.88;;;21.70;;
4565;SDS011;2295;51.050;14.608;2023-05-07T03:08:24;172.10;;;21.45;;
4565;SDS011;2295;51.050;14.608;2023-05-07T03:10:52;151.50;;;20.45;;
4565;SDS011;2295;51.050;14.608;2023-05-07T03:13:21;107.65;;;19.10;;
4565;SDS011;2295;51.050;14.608;2023-05-07T03:15:49;173.20;;;19.60;;
4565;SDS011;2295;51.050;14.608;2023-05-07T03:18:18;138.50;;;20.23;;
4565;SDS011;2295;51.050;14.608;2023-05-07T03:20:47;139.85;;;19.70;;
4565;SDS011;2295;51.050;14.608;2023-05-07T03:23:17;250.63;;;22.25;;
4565;SDS011;2295;51.050;14.608;2023-05-07T03:25:49;89.32;;;20.95;;
4565;SDS011;2295;51.050;14.608;2023-05-07T03:28:18;140.20;;;20.67;;
4565;SDS011;2295;51.050;14.608;2023-05-07T03:30:46;102.60;;;20.70;;
4565;SDS011;2295;51.050;14.608;2023-05-07T03:33:15;146.93;;;21.27;;
4565;SDS011;2295;51.050;14.608;2023-05-07T03:35:43;131.93;;;18.85;;
4565;SDS011;2295;51.050;14.608;2023-05-07T03:38:12;166.75;;;21.60;;
4565;SDS011;2295;51.050;14.608;2023-05-07T03:40:41;201.70;;;22.23;;
4565;SDS011;2295;51.050;14.608;2023-05-07T03:43:10;78.40;;;20.58;;
4565;SDS011;2295;51.050;14.608;2023-05-07T03:45:38;87.72;;;20.58;;
4565;SDS011;2295;51.050;14.608;2023-05-07T03:48:07;60.95;;;18.25;;
4565;SDS011;2295;51.050;14.608;2023-05-07T03:50:35;98.28;;;20.00;;
4565;SDS011;2295;51.050;14.608;2023-05-07T03:53:04;139.88;;;19.33;;
4565;SDS011;2295;51.050;14.608;2023-05-07T03:55:32;123.50;;;19.92;;
4565;SDS011;2295;51.050;14.608;2023-05-07T03:58:03;177.30;;;18.85;;
4565;SDS011;2295;51.050;14.608;2023-05-07T04:00:32;190.88;;;22.83;;
4565;SDS011;2295;51.050;14.608;2023-05-07T04:03:04;94.72;;;19.15;;
4565;SDS011;2295;51.050;14.608;2023-05-07T04:05:33;138.95;;;18.75;;
4565;SDS011;2295;51.050;14.608;2023-05-07T04:08:01;79.38;;;19.85;;
4565;SDS011;2295;51.050;14.608;2023-05-07T04:10:30;115.15;;;20.80;;
4565;SDS011;2295;51.050;14.608;2023-05-07T04:12:58;88.38;;;20.13;;
4565;SDS011;2295;51.050;14.608;2023-05-07T04:15:28;103.18;;;19.38;;
4565;SDS011;2295;51.050;14.608;2023-05-07T04:17:56;101.80;;;19.65;;
4565;SDS011;2295;51.050;14.608;2023-05-07T04:20:25;89.07;;;20.58;;
4565;SDS011;2295;51.050;14.608;2023-05-07T04:22:53;89.68;;;20.17;;
4565;SDS011;2295;51.050;14.608;2023-05-07T04:25:22;92.90;;;21.73;;
4565;SDS011;2295;51.050;14.608;2023-05-07T04:27:52;76.28;;;21.10;;
4565;SDS011;2295;51.050;14.608;2023-05-07T04:30:23;110.60;;;20.75;;
4565;SDS011;2295;51.050;14.608;2023-05-07T04:32:53;81.45;;;20.70;;
4565;SDS011;2295;51.050;14.608;2023-05-07T04:35:22;61.65;;;21.00;;
4565;SDS011;2295;51.050;14.608;2023-05-07T04:37:51;125.10;;;22.92;;
4565;SDS011;2295;51.050;14.608;2023-05-07T04:40:19;137.52;;;23.05;;
4565;SDS011;2295;51.050;14.608;2023-05-07T04:42:48;90.07;;;19.98;;
4565;SDS011;2295;51.050;14.608;2023-05-07T04:45:16;78.38;;;21.60;;
4565;SDS011;2295;51.050;14.608;2023-05-07T04:47:45;90.30;;;22.67;;
4565;SDS011;2295;51.050;14.608;2023-05-07T04:50:15;103.68;;;21.58;;
4565;SDS011;2295;51.050;14.608;2023-05-07T04:52:45;54.85;;;22.13;;
4565;SDS011;2295;51.050;14.608;2023-05-07T04:55:14;60.80;;;21.52;;
4565;SDS011;2295;51.050;14.608;2023-05-07T04:57:42;95.63;;;22.40;;
4565;SDS011;2295;51.050;14.608;2023-05-07T05:00:11;61.58;;;19.33;;
4565;SDS011;2295;51.050;14.608;2023-05-07T05:02:40;92.00;;;19.75;;
4565;SDS011;2295;51.050;14.608;2023-05-07T05:05:09;128.00;;;20.10;;
4565;SDS011;2295;51.050;14.608;2023-05-07T05:07:39;50.08;;;19.08;;
4565;SDS011;2295;51.050;14.608;2023-05-07T05:10:08;52.25;;;21.65;;
4565;SDS011;2295;51.050;14.608;2023-05-07T05:12:36;42.65;;;18.25;;
4565;SDS011;2295;51.050;14.608;2023-05-07T05:15:06;41.85;;;18.15;;
4565;SDS011;2295;51.050;14.608;2023-05-07T05:17:36;44.97;;;18.17;;
4565;SDS011;2295;51.050;14.608;2023-05-07T05:20:05;36.08;;;17.23;;
4565;SDS011;2295;51.050;14.608;2023-05-07T05:22:39;37.55;;;17.05;;
4565;SDS011;2295;51.050;14.608;2023-05-07T05:25:08;37.88;;;16.55;;
4565;SDS011;2295;51.050;14.608;2023-05-07T05:27:37;43.17;;;17.05;;
4565;SDS011;2295;51.050;14.608;2023-05-07T05:30:06;32.78;;;16.10;;
4565;SDS011;2295;51.050;14.608;2023-05-07T05:32:35;26.05;;;13.73;;
4565;SDS011;2295;51.050;14.608;2023-05-07T05:35:06;29.52;;;14.15;;
4565;SDS011;2295;51.050;14.608;2023-05-07T05:37:35;22.98;;;12.88;;
4565;SDS011;2295;51.050;14.608;2023-05-07T05:40:05;20.02;;;12.00;;
4565;SDS011;2295;51.050;14.608;2023-05-07T05:42:35;28.02;;;13.05;;
4565;SDS011;2295;51.050;14.608;2023-05-07T05:45:03;20.65;;;12.73;;
4565;SDS011;2295;51.050;14.608;2023-05-07T05:47:33;18.52;;;12.18;;
4565;SDS011;2295;51.050;14.608;2023-05-07T05:50:01;18.67;;;11.20;;
4565;SDS011;2295;51.050;14.608;2023-05-07T05:52:30;22.92;;;12.32;;
4565;SDS011;2295;51.050;14.608;2023-05-07T05:54:58;19.95;;;11.40;;
4565;SDS011;2295;51.050;14.608;2023-05-07T05:57:28;15.25;;;10.60;;
4565;SDS011;2295;51.050;14.608;2023-05-07T05:59:57;21.58;;;10.63;;
4565;SDS011;2295;51.050;14.608;2023-05-07T06:02:25;13.80;;;10.35;;
4565;SDS011;2295;51.050;14.608;2023-05-07T06:04:54;16.45;;;11.05;;
4565;SDS011;2295;51.050;14.608;2023-05-07T06:07:23;16.02;;;10.82;;
4565;SDS011;2295;51.050;14.608;2023-05-07T06:09:51;14.75;;;9.73;;
4565;SDS011;2295;51.050;14.608;2023-05-07T06:12:20;11.75;;;7.93;;
4565;SDS011;2295;51.050;14.608;2023-05-07T06:14:50;12.13;;;8.98;;
4565;SDS011;2295;51.050;14.608;2023-05-07T06:17:18;14.23;;;9.82;;
4565;SDS011;2295;51.050;14.608;2023-05-07T06:19:47;19.45;;;10.38;;
4565;SDS011;2295;51.050;14.608;2023-05-07T06:22:16;14.52;;;10.40;;
4565;SDS011;2295;51.050;14.608;2023-05-07T06:24:44;14.35;;;9.38;;
4565;SDS011;2295;51.050;14.608;2023-05-07T06:27:13;12.90;;;9.35;;
4565;SDS011;2295;51.050;14.608;2023-05-07T06:29:42;14.68;;;9.55;;
4565;SDS011;2295;51.050;14.608;2023-05-07T06:32:12;12.30;;;9.70;;
4565;SDS011;2295;51.050;14.608;2023-05-07T06:34:41;13.80;;;10.52;;
4565;SDS011;2295;51.050;14.608;2023-05-07T06:37:09;16.20;;;10.73;;
4565;SDS011;2295;51.050;14.608;2023-05-07T06:39:39;14.75;;;10.68;;
4565;SDS011;2295;51.050;14.608;2023-05-07T06:42:08;16.60;;;12.20;;
4565;SDS011;2295;51.050;14.608;2023-05-07T06:44:36;17.80;;;12.75;;
4565;SDS011;2295;51.050;14.608;2023-05-07T06:47:12;21.55;;;14.32;;
4565;SDS011;2295;51.050;14.608;2023-05-07T06:49:42;22.13;;;13.45;;
4565;SDS011;2295;51.050;14.608;2023-05-07T06:52:11;32.08;;;16.65;;
4565;SDS011;2295;51.050;14.608;2023-05-07T06:54:39;29.77;;;17.20;;
4565;SDS011;2295;51.050;14.608;2023-05-07T06:57:08;33.78;;;18.40;;
4565;SDS011;2295;51.050;14.608;2023-05-07T06:59:37;32.15;;;17.23;;
4565;SDS011;2295;51.050;14.608;2023-05-07T07:02:05;35.85;;;19.00;;
4565;SDS011;2295;51.050;14.608;2023-05-07T07:04:36;39.58;;;20.33;;
4565;SDS011;2295;51.050;14.608;2023-05-07T07:07:05;35.15;;;17.90;;
4565;SDS011;2295;51.050;14.608;2023-05-07T07:09:33;39.40;;;18.20;;
4565;SDS011;2295;51.050;14.608;2023-05-07T07:12:02;40.85;;;18.67;;
4565;SDS011;2295;51.050;14.608;2023-05-07T07:14:31;36.20;;;17.60;;
4565;SDS011;2295;51.050;14.608;2023-05-07T07:17:02;31.92;;;16.85;;
4565;SDS011;2295;51.050;14.608;2023-05-07T07:19:33;33.97;;;18.25;;
4565;SDS011;2295;51.050;14.608;2023-05-07T07:22:03;28.10;;;16.02;;
4565;SDS011;2295;51.050;14.608;2023-05-07T07:24:40;26.73;;;15.18;;
4565;SDS011;2295;51.050;14.608;2023-05-07T07:27:08;25.85;;;14.40;;
4565;SDS011;2295;51.050;14.608;2023-05-07T07:29:39;23.00;;;14.20;;
4565;SDS011;2295;51.050;14.608;2023-05-07T07:32:08;25.50;;;13.80;;
4565;SDS011;2295;51.050;14.608;2023-05-07T07:34:36;23.45;;;15.30;;
4565;SDS011;2295;51.050;14.608;2023-05-07T07:37:06;23.45;;;15.00;;
4565;SDS011;2295;51.050;14.608;2023-05-07T07:39:35;22.35;;;14.55;;
4565;SDS011;2295;51.050;14.608;2023-05-07T07:42:04;22.83;;;12.70;;
4565;SDS011;2295;51.050;14.608;2023-05-07T07:44:32;20.30;;;13.00;;
4565;SDS011;2295;51.050;14.608;2023-05-07T07:47:01;22.73;;;13.02;;
4565;SDS011;2295;51.050;14.608;2023-05-07T07:49:29;20.48;;;12.38;;
4565;SDS011;2295;51.050;14.608;2023-05-07T07:51:57;21.10;;;12.02;;
4565;SDS011;2295;51.050;14.608;2023-05-07T07:54:27;19.55;;;11.88;;
4565;SDS011;2295;51.050;14.608;2023-05-07T07:56:56;17.00;;;11.45;;
4565;SDS011;2295;51.050;14.608;2023-05-07T07:59:25;14.93;;;10.60;;
4565;SDS011;2295;51.050;14.608;2023-05-07T08:01:53;14.93;;;10.40;;
4565;SDS011;2295;51.050;14.608;2023-05-07T08:04:23;19.55;;;10.80;;
4565;SDS011;2295;51.050;14.608;2023-05-07T08:06:51;16.95;;;10.88;;
4565;SDS011;2295;51.050;14.608;2023-05-07T08:09:20;23.42;;;11.75;;
4565;SDS011;2295;51.050;14.608;2023-05-07T08:11:50;15.70;;;10.65;;
4565;SDS011;2295;51.050;14.608;2023-05-07T08:14:21;16.70;;;10.63;;
4565;SDS011;2295;51.050;14.608;2023-05-07T08:16:50;16.08;;;11.40;;
4565;SDS011;2295;51.050;14.608;2023-05-07T08:19:19;16.90;;;10.88;;
4565;SDS011;2295;51.050;14.608;2023-05-07T08:21:50;17.65;;;11.40;;
4565;SDS011;2295;51.050;14.608;2023-05-07T08:24:18;17.90;;;12.30;;
4565;SDS011;2295;51.050;14.608;2023-05-07T08:26:47;13.50;;;10.70;;
4565;SDS011;2295;51.050;14.608;2023-05-07T08:29:17;15.10;;;10.98;;
4565;SDS011;2295;51.050;14.608;2023-05-07T08:31:46;16.15;;;11.02;;
4565;SDS011;2295;51.050;14.608;2023-05-07T08:34:14;18.77;;;12.00;;
4565;SDS011;2295;51.050;14.608;2023-05-07T08:36:43;17.80;;;11.05;;
4565;SDS011;2295;51.050;14.608;2023-05-07T08:39:15;18.02;;;11.73;;
4565;SDS011;2295;51.050;14.608;2023-05-07T08:41:44;15.45;;;10.95;;
4565;SDS011;2295;51.050;14.608;2023-05-07T08:44:13;14.05;;;10.45;;
4565;SDS011;2295;51.050;14.608;2023-05-07T08:46:45;14.25;;;11.15;;
4565;SDS011;2295;51.050;14.608;2023-05-07T08:49:16;15.23;;;11.35;;
4565;SDS011;2295;51.050;14.608;2023-05-07T08:51:45;13.90;;;10.23;;
4565;SDS011;2295;51.050;14.608;2023-05-07T08:54:15;13.98;;;10.02;;
4565;SDS011;2295;51.050;14.608;2023-05-07T08:56:47;15.10;;;10.45;;
4565;SDS011;2295;51.050;14.608;2023-05-07T08:59:15;13.57;;;9.85;;
4565;SDS011;2295;51.050;14.608;2023-05-07T09:01:43;15.02;;;9.98;;
4565;SDS011;2295;51.050;14.608;2023-05-07T09:04:13;13.35;;;10.13;;
4565;SDS011;2295;51.050;14.608;2023-05-07T09:06:42;11.57;;;8.95;;
4565;SDS011;2295;51.050;14.608;2023-05-07T09:09:10;14.90;;;10.40;;
4565;SDS011;2295;51.050;14.608;2023-05-07T09:11:44;15.60;;;10.02;;
4565;SDS011;2295;51.050;14.608;2023-05-07T09:14:13;12.57;;;8.98;;
4565;SDS011;2295;51.050;14.608;2023-05-07T09:16:41;12.77;;;9.40;;
4565;SDS011;2295;51.050;14.608;2023-05-07T09:19:22;14.23;;;7.78;;
4565;SDS011;2295;51.050;14.608;2023-05-07T09:21:57;10.80;;;8.25;;
4565;SDS011;2295;51.050;14.608;2023-05-07T09:24:26;11.18;;;8.25;;
4565;SDS011;2295;51.050;14.608;2023-05-07T09:26:57;11.95;;;7.60;;
4565;SDS011;2295;51.050;14.608;2023-05-07T09:29:27;13.27;;;7.80;;
4565;SDS011;2295;51.050;14.608;2023-05-07T09:31:57;10.30;;;7.65;;
4565;SDS011;2295;51.050;14.608;2023-05-07T09:34:26;8.73;;;7.65;;
4565;SDS011;2295;51.050;14.608;2023-05-07T09:36:55;9.57;;;6.90;;
4565;SDS011;2295;51.050;14.608;2023-05-07T09:39:24;8.50;;;7.22;;
4565;SDS011;2295;51.050;14.608;2023-05-07T09:41:53;9.75;;;7.55;;
4565;SDS011;2295;51.050;14.608;2023-05-07T09:44:21;11.15;;;8.13;;
4565;SDS011;2295;51.050;14.608;2023-05-07T09:46:55;16.35;;;9.05;;
4565;SDS011;2295;51.050;14.608;2023-05-07T09:49:28;13.65;;;8.90;;
4565;SDS011;2295;51.050;14.608;2023-05-07T09:52:05;14.52;;;10.25;;
4565;SDS011;2295;51.050;14.608;2023-05-07T09:54:36;20.40;;;11.07;;
4565;SDS011;2295;51.050;14.608;2023-05-07T09:57:09;19.45;;;11.50;;
4565;SDS011;2295;51.050;14.608;2023-05-07T09:59:39;13.32;;;8.50;;
4565;SDS011;2295;51.050;14.608;2023-05-07T10:02:12;14.30;;;10.25;;
4565;SDS011;2295;51.050;14.608;2023-05-07T10:04:42;12.65;;;9.57;;
4565;SDS011;2295;51.050;14.608;2023-05-07T10:07:11;13.10;;;9.75;;
4565;SDS011;2295;51.050;14.608;2023-05-07T10:09:39;11.85;;;9.25;;
4565;SDS011;2295;51.050;14.608;2023-05-07T10:12:10;16.08;;;9.20;;
4565;SDS011;2295;51.050;14.608;2023-05-07T10:14:38;13.50;;;9.93;;
4565;SDS011;2295;51.050;14.608;2023-05-07T10:17:12;12.77;;;9.55;;
4565;SDS011;2295;51.050;14.608;2023-05-07T10:19:44;13.93;;;9.73;;
4565;SDS011;2295;51.050;14.608;2023-05-07T10:22:12;13.60;;;9.85;;
4565;SDS011;2295;51.050;14.608;2023-05-07T10:24:43;13.65;;;10.50;;
4565;SDS011;2295;51.050;14.608;2023-05-07T10:27:15;10.55;;;8.82;;
4565;SDS011;2295;51.050;14.608;2023-05-07T10:29:50;10.88;;;8.00;;
4565;SDS011;2295;51.050;14.608;2023-05-07T10:32:30;10.70;;;7.75;;
4565;SDS011;2295;51.050;14.608;2023-05-07T10:35:06;9.18;;;6.82;;
4565;SDS011;2295;51.050;14.608;2023-05-07T10:37:38;9.00;;;7.32;;
4565;SDS011;2295;51.050;14.608;2023-05-07T10:40:07;9.82;;;7.15;;
4565;SDS011;2295;51.050;14.608;2023-05-07T10:42:37;8.27;;;6.25;;
4565;SDS011;2295;51.050;14.608;2023-05-07T10:45:11;8.43;;;7.10;;
4565;SDS011;2295;51.050;14.608;2023-05-07T10:50:41;7.45;;;5.85;;
4565;SDS011;2295;51.050;14.608;2023-05-07T10:53:25;7.25;;;5.45;;
4565;SDS011;2295;51.050;14.608;2023-05-07T10:58:52;8.13;;;6.38;;
4565;SDS011;2295;51.050;14.608;2023-05-07T11:04:22;8.40;;;7.30;;
4565;SDS011;2295;51.050;14.608;2023-05-07T11:10:03;9.48;;;7.00;;
4565;SDS011;2295;51.050;14.608;2023-05-07T11:12:54;7.88;;;7.03;;
4565;SDS011;2295;51.050;14.608;2023-05-07T11:15:43;8.23;;;6.90;;
4565;SDS011;2295;51.050;14.608;2023-05-07T11:18:16;9.85;;;7.50;;
4565;SDS011;2295;51.050;14.608;2023-05-07T11:20:55;9.57;;;8.20;;
4565;SDS011;2295;51.050;14.608;2023-05-07T11:26:28;9.43;;;7.38;;
4565;SDS011;2295;51.050;14.608;2023-05-07T11:28:57;8.40;;;6.40;;
4565;SDS011;2295;51.050;14.608;2023-05-07T11:31:27;8.63;;;6.75;;
4565;SDS011;2295;51.050;14.608;2023-05-07T11:33:56;6.25;;;5.47;;
4565;SDS011;2295;51.050;14.608;2023-05-07T11:36:30;5.57;;;5.10;;
4565;SDS011;2295;51.050;14.608;2023-05-07T11:39:03;6.50;;;5.55;;
4565;SDS011;2295;51.050;14.608;2023-05-07T11:41:35;5.22;;;4.15;;
4565;SDS011;2295;51.050;14.608;2023-05-07T11:44:04;8.63;;;5.30;;
4565;SDS011;2295;51.050;14.608;2023-05-07T11:46:32;5.68;;;4.60;;
4565;SDS011;2295;51.050;14.608;2023-05-07T11:49:01;5.18;;;4.68;;
4565;SDS011;2295;51.050;14.608;2023-05-07T11:51:31;6.82;;;5.68;;
4565;SDS011;2295;51.050;14.608;2023-05-07T11:53:59;8.30;;;6.70;;
4565;SDS011;2295;51.050;14.608;2023-05-07T11:56:27;9.88;;;7.40;;
4565;SDS011;2295;51.050;14.608;2023-05-07T11:58:56;7.65;;;6.95;;
4565;SDS011;2295;51.050;14.608;2023-05-07T12:01:26;16.75;;;6.65;;
4565;SDS011;2295;51.050;14.608;2023-05-07T12:03:55;12.90;;;6.78;;
4565;SDS011;2295;51.050;14.608;2023-05-07T12:06:26;5.85;;;5.25;;
4565;SDS011;2295;51.050;14.608;2023-05-07T12:09:05;4.20;;;3.80;;
4565;SDS011;2295;51.050;14.608;2023-05-07T12:11:38;4.70;;;4.18;;
4565;SDS011;2295;51.050;14.608;2023-05-07T12:14:07;3.80;;;3.50;;
4565;SDS011;2295;51.050;14.608;2023-05-07T12:16:38;4.10;;;3.80;;
4565;SDS011;2295;51.050;14.608;2023-05-07T12:19:08;4.18;;;3.22;;
4565;SDS011;2295;51.050;14.608;2023-05-07T12:21:42;4.80;;;3.20;;
4565;SDS011;2295;51.050;14.608;2023-05-07T12:24:11;2.70;;;2.53;;
4565;SDS011;2295;51.050;14.608;2023-05-07T12:26:39;3.20;;;3.00;;
4565;SDS011;2295;51.050;14.608;2023-05-07T12:29:08;4.45;;;2.90;;
4565;SDS011;2295;51.050;14.608;2023-05-07T12:31:36;3.75;;;2.42;;
4565;SDS011;2295;51.050;14.608;2023-05-07T12:34:08;5.20;;;2.88;;
4565;SDS011;2295;51.050;14.608;2023-05-07T12:36:38;2.92;;;2.72;;
4565;SDS011;2295;51.050;14.608;2023-05-07T12:39:09;7.10;;;3.30;;
4565;SDS011;2295;51.050;14.608;2023-05-07T12:41:52;4.32;;;3.92;;
4565;SDS011;2295;51.050;14.608;2023-05-07T12:44:22;4.53;;;2.80;;
4565;SDS011;2295;51.050;14.608;2023-05-07T12:46:50;3.50;;;3.20;;
4565;SDS011;2295;51.050;14.608;2023-05-07T12:49:19;3.20;;;2.90;;
4565;SDS011;2295;51.050;14.608;2023-05-07T12:51:50;6.07;;;3.38;;
4565;SDS011;2295;51.050;14.608;2023-05-07T12:54:30;4.07;;;3.67;;
4565;SDS011;2295;51.050;14.608;2023-05-07T12:57:02;3.58;;;3.28;;
4565;SDS011;2295;51.050;14.608;2023-05-07T12:59:35;3.13;;;2.92;;
4565;SDS011;2295;51.050;14.608;2023-05-07T13:02:04;3.97;;;3.67;;
4565;SDS011;2295;51.050;14.608;2023-05-07T13:04:33;4.55;;;4.13;;
4565;SDS011;2295;51.050;14.608;2023-05-07T13:07:02;3.80;;;3.50;;
4565;SDS011;2295;51.050;14.608;2023-05-07T13:09:32;4.50;;;4.10;;
4565;SDS011;2295;51.050;14.608;2023-05-07T13:12:01;5.40;;;3.90;;
4565;SDS011;2295;51.050;14.608;2023-05-07T13:14:30;3.80;;;3.40;;
4565;SDS011;2295;51.050;14.608;2023-05-07T13:16:58;3.60;;;3.40;;
4565;SDS011;2295;51.050;14.608;2023-05-07T13:19:27;5.32;;;3.83;;
4565;SDS011;2295;51.050;14.608;2023-05-07T13:21:56;4.15;;;3.75;;
4565;SDS011;2295;51.050;14.608;2023-05-07T13:24:28;8.02;;;5.45;;
4565;SDS011;2295;51.050;14.608;2023-05-07T13:26:57;6.55;;;5.75;;
4565;SDS011;2295;51.050;14.608;2023-05-07T13:29:29;8.73;;;7.28;;
4565;SDS011;2295;51.050;14.608;2023-05-07T13:32:01;13.02;;;6.68;;
4565;SDS011;2295;51.050;14.608;2023-05-07T13:34:29;7.38;;;6.30;;
4565;SDS011;2295;51.050;14.608;2023-05-07T13:36:57;11.07;;;6.70;;
4565;SDS011;2295;51.050;14.608;2023-05-07T13:39:29;11.30;;;7.72;;
4565;SDS011;2295;51.050;14.608;2023-05-07T13:41:59;13.05;;;8.07;;
4565;SDS011;2295;51.050;14.608;2023-05-07T13:44:27;14.73;;;9.63;;
4565;SDS011;2295;51.050;14.608;2023-05-07T13:46:59;12.50;;;9.05;;
4565;SDS011;2295;51.050;14.608;2023-05-07T13:49:27;12.00;;;10.07;;
4565;SDS011;2295;51.050;14.608;2023-05-07T13:51:58;11.40;;;8.82;;
4565;SDS011;2295;51.050;14.608;2023-05-07T13:54:26;10.00;;;8.95;;
4565;SDS011;2295;51.050;14.608;2023-05-07T13:56:55;8.48;;;7.18;;
4565;SDS011;2295;51.050;14.608;2023-05-07T13:59:24;8.18;;;6.60;;
4565;SDS011;2295;51.050;14.608;2023-05-07T14:01:53;8.23;;;6.75;;
4565;SDS011;2295;51.050;14.608;2023-05-07T14:04:22;6.65;;;5.82;;
4565;SDS011;2295;51.050;14.608;2023-05-07T14:06:50;7.57;;;6.10;;
4565;SDS011;2295;51.050;14.608;2023-05-07T14:09:18;6.75;;;5.80;;
4565;SDS011;2295;51.050;14.608;2023-05-07T14:11:46;7.78;;;5.65;;
4565;SDS011;2295;51.050;14.608;2023-05-07T14:14:18;7.07;;;6.38;;
4565;SDS011;2295;51.050;14.608;2023-05-07T14:16:48;5.82;;;5.22;;
4565;SDS011;2295;51.050;14.608;2023-05-07T14:19:16;6.05;;;5.30;;
4565;SDS011;2295;51.050;14.608;2023-05-07T14:21:51;6.70;;;5.80;;
4565;SDS011;2295;51.050;14.608;2023-05-07T14:24:28;8.40;;;7.00;;
4565;SDS011;2295;51.050;14.608;2023-05-07T14:27:04;9.18;;;7.15;;
4565;SDS011;2295;51.050;14.608;2023-05-07T14:29:39;8.10;;;7.30;;
4565;SDS011;2295;51.050;14.608;2023-05-07T14:32:08;11.23;;;8.43;;
4565;SDS011;2295;51.050;14.608;2023-05-07T14:34:37;8.85;;;7.22;;
4565;SDS011;2295;51.050;14.608;2023-05-07T14:37:05;8.48;;;7.28;;
4565;SDS011;2295;51.050;14.608;2023-05-07T14:39:42;10.90;;;7.68;;
4565;SDS011;2295;51.050;14.608;2023-05-07T14:42:15;11.98;;;8.43;;
4565;SDS011;2295;51.050;14.608;2023-05-07T14:44:44;12.82;;;8.07;;
4565;SDS011;2295;51.050;14.608;2023-05-07T14:47:15;13.13;;;9.18;;
4565;SDS011;2295;51.050;14.608;2023-05-07T14:49:46;11.15;;;8.27;;
4565;SDS011;2295;51.050;14.608;2023-05-07T14:52:14;12.00;;;9.40;;
4565;SDS011;2295;51.050;14.608;2023-05-07T14:54:43;11.55;;;8.95;;
4565;SDS011;2295;51.050;14.608;2023-05-07T14:57:14;9.82;;;8.48;;
4565;SDS011;2295;51.050;14.608;2023-05-07T14:59:44;11.15;;;8.48;;
4565;SDS011;2295;51.050;14.608;2023-05-07T15:02:17;10.82;;;8.52;;
4565;SDS011;2295;51.050;14.608;2023-05-07T15:04:46;10.32;;;8.20;;
4565;SDS011;2295;51.050;14.608;2023-05-07T15:07:15;11.90;;;8.70;;
4565;SDS011;2295;51.050;14.608;2023-05-07T15:09:43;9.57;;;7.80;;
4565;SDS011;2295;51.050;14.608;2023-05-07T15:12:15;8.43;;;7.05;;